createdAt,value
2023-02-11T00:01:37.279Z,32.99
2023-02-11T00:04:08.267Z,32.78
2023-02-11T00:06:37.824Z,32.88
2023-02-11T00:09:07.017Z,32.75
2023-02-11T00:11:35.639Z,32.59
2023-02-11T00:14:07.842Z,32.72
2023-02-11T00:16:36.448Z,32.74
2023-02-11T00:19:07.484Z,33.09
2023-02-11T00:21:36.345Z,33.02
2023-02-11T00:24:05.341Z,33.38
2023-02-11T00:26:36.628Z,32.86
2023-02-11T00:29:06.927Z,33.33
2023-02-11T00:31:35.840Z,33.05
2023-02-11T00:34:04.594Z,32.81
2023-02-11T00:36:34.910Z,33.31
2023-02-11T00:39:03.390Z,33.59
2023-02-11T00:41:32.584Z,33.60
2023-02-11T00:44:01.257Z,33.24
2023-02-11T00:46:30.014Z,33.47
2023-02-11T00:48:58.668Z,33.33
2023-02-11T00:51:28.694Z,32.83
2023-02-11T00:53:58.774Z,33.31
2023-02-11T00:56:27.661Z,32.74
2023-02-11T00:58:56.145Z,33.25
2023-02-11T01:01:25.256Z,33.12
2023-02-11T01:03:53.672Z,33.54
2023-02-11T01:06:22.341Z,33.59
2023-02-11T01:08:50.864Z,33.56
2023-02-11T01:11:22.132Z,33.32
2023-02-11T01:13:52.181Z,33.63
2023-02-11T01:16:22.357Z,33.21
2023-02-11T01:18:51.061Z,33.38
2023-02-11T01:21:19.544Z,33.32
2023-02-11T01:23:48.480Z,33.14
2023-02-11T01:26:17.112Z,33.85
2023-02-11T01:28:47.023Z,33.50
2023-02-11T01:31:16.099Z,34.17
2023-02-11T01:33:44.823Z,34.10
2023-02-11T01:36:13.925Z,33.61
2023-02-11T01:38:44.507Z,33.20
2023-02-11T01:41:15.778Z,33.37
2023-02-11T01:43:49.523Z,33.38
2023-02-11T01:46:35.446Z,33.88
2023-02-11T01:49:10.502Z,33.79
2023-02-11T01:51:44.845Z,34.27
2023-02-11T01:54:35.767Z,33.84
2023-02-11T01:57:25.147Z,34.01
2023-02-11T02:00:06.881Z,34.39
2023-02-11T02:02:47.779Z,34.57
2023-02-11T02:05:32.539Z,34.12
2023-02-11T02:08:10.961Z,34.12
2023-02-11T02:10:44.570Z,34.31
2023-02-11T02:13:14.274Z,34.21
2023-02-11T02:15:51.947Z,34.13
2023-02-11T02:18:43.364Z,34.68
2023-02-11T02:21:53.743Z,34.75
2023-02-11T02:24:56.433Z,34.43
2023-02-11T02:27:43.350Z,34.17
2023-02-11T02:31:16.861Z,34.33
2023-02-11T02:33:57.029Z,34.50
2023-02-11T02:36:35.522Z,34.76
2023-02-11T02:39:10.346Z,35.03
2023-02-11T02:41:40.664Z,34.95
2023-02-11T02:44:10.137Z,34.66
2023-02-11T02:46:38.927Z,34.69
2023-02-11T02:49:15.308Z,34.65
2023-02-11T02:52:32.961Z,34.80
2023-02-11T02:55:43.840Z,34.82
2023-02-11T02:59:11.798Z,35.49
2023-02-11T03:01:51.498Z,35.21
2023-02-11T03:04:30.405Z,34.82
2023-02-11T03:07:08.946Z,35.34
2023-02-11T03:09:45.167Z,35.16
2023-02-11T03:12:15.297Z,35.36
2023-02-11T03:14:44.616Z,35.30
2023-02-11T03:17:15.535Z,35.76
2023-02-11T03:19:48.404Z,35.87
2023-02-11T03:22:23.247Z,36.16
2023-02-11T03:24:52.064Z,35.43
2023-02-11T03:27:28.017Z,36.06
2023-02-11T03:30:06.827Z,35.90
2023-02-11T03:32:41.314Z,35.44
2023-02-11T03:35:17.801Z,35.51
2023-02-11T03:37:53.410Z,35.55
2023-02-11T03:40:25.941Z,35.53
2023-02-11T03:43:00.828Z,36.46
2023-02-11T03:45:29.880Z,35.60
2023-02-11T03:48:04.184Z,36.29
2023-02-11T03:50:37.422Z,35.70
2023-02-11T03:53:07.088Z,36.19
2023-02-11T03:55:41.161Z,36.19
2023-02-11T03:58:10.529Z,35.86
2023-02-11T04:00:42.590Z,36.14
2023-02-11T04:03:12.338Z,35.70
2023-02-11T04:05:42.390Z,36.14
2023-02-11T04:08:10.974Z,35.89
2023-02-11T04:10:39.430Z,35.79
2023-02-11T04:13:07.868Z,35.66
2023-02-11T04:15:36.377Z,35.91
2023-02-11T04:18:05.298Z,36.20
2023-02-11T04:20:33.737Z,35.68
2023-02-11T04:23:03.606Z,35.80
2023-02-11T04:25:32.205Z,35.75
2023-02-11T04:28:00.694Z,35.92
2023-02-11T04:30:29.318Z,36.45
2023-02-11T04:32:59.020Z,36.06
2023-02-11T04:35:27.586Z,35.91
2023-02-11T04:37:55.998Z,35.83
2023-02-11T04:40:25.865Z,36.02
2023-02-11T04:42:54.414Z,36.25
2023-02-11T04:45:22.990Z,36.19
2023-02-11T04:47:51.478Z,35.87
2023-02-11T04:50:20.157Z,36.58
2023-02-11T04:52:48.584Z,36.02
2023-02-11T04:55:18.111Z,36.30
2023-02-11T04:57:48.019Z,36.65
2023-02-11T05:00:18.032Z,35.92
2023-02-11T05:02:46.557Z,36.39
2023-02-11T05:05:15.025Z,36.63
2023-02-11T05:07:43.451Z,36.13
2023-02-11T05:10:12.059Z,36.04
2023-02-11T05:12:40.525Z,36.00
2023-02-11T05:15:11.095Z,36.42
2023-02-11T05:17:39.493Z,36.16
2023-02-11T05:20:09.372Z,35.96
2023-02-11T05:22:37.773Z,36.09
2023-02-11T05:25:07.361Z,36.14
2023-02-11T05:27:35.823Z,35.82
2023-02-11T05:30:04.322Z,36.06
2023-02-11T05:32:34.158Z,35.51
2023-02-11T05:35:02.711Z,35.90
2023-02-11T05:37:31.182Z,35.89
2023-02-11T05:39:59.682Z,35.62
2023-02-11T05:42:28.233Z,35.79
2023-02-11T05:44:56.650Z,35.45
2023-02-11T05:47:25.102Z,35.85
2023-02-11T05:49:55.306Z,35.61
2023-02-11T05:52:24.531Z,35.83
2023-02-11T05:54:53.043Z,35.65
2023-02-11T05:57:21.638Z,35.59
2023-02-11T05:59:50.055Z,35.34
2023-02-11T06:02:18.494Z,35.40
2023-02-11T06:04:47.193Z,35.41
2023-02-11T06:07:17.515Z,35.51
2023-02-11T06:09:46.228Z,35.34
2023-02-11T06:12:14.831Z,35.65
2023-02-11T06:14:43.508Z,35.80
2023-02-11T06:17:13.973Z,35.51
2023-02-11T06:19:43.768Z,35.88
2023-02-11T06:22:12.305Z,35.81
2023-02-11T06:25:00.455Z,35.50
2023-02-11T06:27:30.114Z,35.65
2023-02-11T06:29:58.603Z,35.59
2023-02-11T06:32:43.981Z,35.70
2023-02-11T06:35:14.585Z,35.88
2023-02-11T06:37:43.932Z,35.42
2023-02-11T06:40:14.535Z,35.75
2023-02-11T06:42:43.047Z,35.58
2023-02-11T06:45:13.353Z,35.43
2023-02-11T06:47:42.996Z,35.86
2023-02-11T06:50:15.666Z,35.94
2023-02-11T06:52:44.074Z,35.76
2023-02-11T06:55:13.962Z,35.92
2023-02-11T06:57:42.574Z,35.47
2023-02-11T07:00:13.019Z,35.85
2023-02-11T07:02:41.480Z,35.64
2023-02-11T07:05:11.102Z,35.57
2023-02-11T07:07:39.675Z,35.62
2023-02-11T07:10:09.454Z,35.37
2023-02-11T07:12:39.325Z,35.37
2023-02-11T07:15:09.056Z,35.47
2023-02-11T07:17:37.802Z,35.09
2023-02-11T07:20:07.517Z,35.32
2023-02-11T07:22:35.963Z,35.21
2023-02-11T07:25:04.636Z,34.98
2023-02-11T07:27:33.196Z,35.02
2023-02-11T07:30:04.929Z,34.77
2023-02-11T07:32:35.341Z,34.77
2023-02-11T07:35:04.051Z,34.37
2023-02-11T07:37:34.262Z,34.19
2023-02-11T07:40:02.800Z,34.47
2023-02-11T07:42:31.231Z,34.21
2023-02-11T07:44:59.628Z,34.04
2023-02-11T07:47:29.426Z,33.88
2023-02-11T07:49:57.925Z,33.72
2023-02-11T07:52:26.322Z,33.50
2023-02-11T07:54:54.730Z,33.62
2023-02-11T07:57:23.113Z,33.15
2023-02-11T07:59:51.548Z,33.33
2023-02-11T08:02:20.047Z,33.35
2023-02-11T08:04:50.825Z,32.54
2023-02-11T08:07:20.250Z,32.74
2023-02-11T08:09:48.779Z,31.99
2023-02-11T08:12:17.199Z,32.48
2023-02-11T08:14:45.599Z,31.59
2023-02-11T08:17:14.014Z,31.93
2023-02-11T08:19:42.437Z,31.29
2023-02-11T08:22:12.598Z,31.98
2023-02-11T08:24:41.007Z,31.81
2023-02-11T08:27:09.404Z,31.74
2023-02-11T08:29:37.816Z,31.77
2023-02-11T08:32:06.328Z,31.76
2023-02-11T08:34:34.761Z,31.58
2023-02-11T08:37:03.159Z,31.48
2023-02-11T08:39:32.909Z,31.14
2023-02-11T08:42:01.265Z,31.57
2023-02-11T08:44:30.052Z,31.70
2023-02-11T08:46:58.464Z,31.44
2023-02-11T08:49:26.891Z,31.22
2023-02-11T08:51:56.278Z,31.35
2023-02-11T08:54:24.697Z,31.23
2023-02-11T08:56:54.629Z,31.57
2023-02-11T08:59:23.356Z,31.02
2023-02-11T09:01:52.085Z,30.99
2023-02-11T09:04:21.142Z,31.16
2023-02-11T09:06:49.564Z,31.01
2023-02-11T09:09:18.743Z,30.76
2023-02-11T09:11:48.213Z,31.09
2023-02-11T09:14:22.990Z,30.21
2023-02-11T09:16:53.248Z,30.37
2023-02-11T09:19:23.093Z,30.39
2023-02-11T09:21:51.686Z,30.47
2023-02-11T09:24:20.247Z,30.28
2023-02-11T09:26:49.599Z,30.30
2023-02-11T09:29:19.390Z,30.23
2023-02-11T09:31:47.997Z,30.13
2023-02-11T09:34:16.579Z,29.42
2023-02-11T09:36:45.038Z,29.43
2023-02-11T09:39:17.046Z,29.52
2023-02-11T09:42:38.075Z,29.52
2023-02-11T09:45:18.526Z,29.66
2023-02-11T09:47:59.827Z,29.56
2023-02-11T09:50:33.893Z,29.09
2023-02-11T09:53:05.851Z,29.31
2023-02-11T09:55:39.493Z,29.35
2023-02-11T09:58:15.048Z,28.75
2023-02-11T10:00:52.679Z,29.17
2023-02-11T10:03:50.959Z,29.36
2023-02-11T10:06:43.302Z,29.51
2023-02-11T10:09:48.852Z,29.25
2023-02-11T10:12:35.095Z,28.88
2023-02-11T10:15:19.163Z,29.07
2023-02-11T10:18:02.847Z,28.98
2023-02-11T10:20:37.807Z,28.84
2023-02-11T10:23:16.760Z,28.75
2023-02-11T10:25:47.968Z,28.78
2023-02-11T10:28:19.032Z,28.32
2023-02-11T10:30:57.505Z,28.42
2023-02-11T10:33:32.695Z,28.00
2023-02-11T10:36:01.546Z,28.22
2023-02-11T10:38:30.137Z,27.94
2023-02-11T10:40:58.535Z,27.67
2023-02-11T10:43:31.950Z,27.52
2023-02-11T10:46:03.643Z,27.03
2023-02-11T10:48:44.177Z,27.25
2023-02-11T10:51:22.486Z,25.98
2023-02-11T10:54:13.898Z,26.76
2023-02-11T10:56:50.044Z,26.83
2023-02-11T10:59:28.431Z,26.53
2023-02-11T11:02:01.334Z,26.63
2023-02-11T11:04:46.079Z,26.32
2023-02-11T11:07:20.584Z,26.26
2023-02-11T11:09:56.765Z,26.18
2023-02-11T11:12:35.186Z,26.33
2023-02-11T11:15:18.824Z,26.03
2023-02-11T11:17:47.666Z,26.21
2023-02-11T11:20:32.379Z,26.20
2023-02-11T11:23:17.342Z,26.26
2023-02-11T11:25:59.225Z,26.07
2023-02-11T11:28:31.121Z,25.82
2023-02-11T11:31:01.886Z,25.55
2023-02-11T11:33:33.400Z,25.50
2023-02-11T11:36:09.017Z,25.59
2023-02-11T11:38:44.668Z,25.64
2023-02-11T11:41:25.935Z,25.34
2023-02-11T11:44:04.280Z,25.41
2023-02-11T11:46:36.514Z,25.24
2023-02-11T11:49:27.734Z,25.27
2023-02-11T11:52:11.318Z,24.97
2023-02-11T11:54:42.982Z,24.83
2023-02-11T11:57:17.915Z,24.48
2023-02-11T11:59:47.151Z,24.70
2023-02-11T12:03:00.912Z,24.74
2023-02-11T12:05:39.265Z,25.04
2023-02-11T12:08:24.882Z,24.90
2023-02-11T12:11:10.592Z,24.60
2023-02-11T12:13:50.288Z,24.69
2023-02-11T12:16:32.153Z,24.73
2023-02-11T12:19:48.002Z,24.62
2023-02-11T12:22:31.992Z,24.31
2023-02-11T12:25:23.606Z,24.57
2023-02-11T12:28:05.131Z,24.61
2023-02-11T12:31:07.842Z,24.94
2023-02-11T12:34:05.707Z,25.21
2023-02-11T12:37:02.941Z,25.23
2023-02-11T12:39:44.515Z,24.61
2023-02-11T12:43:03.355Z,24.15
2023-02-11T12:46:25.860Z,24.02
2023-02-11T12:49:33.176Z,24.22
2023-02-11T12:52:36.928Z,24.58
2023-02-11T12:55:17.394Z,24.37
2023-02-11T12:57:50.395Z,24.05
2023-02-11T13:00:24.822Z,23.70
2023-02-11T13:03:05.275Z,23.71
2023-02-11T13:05:42.551Z,23.96
2023-02-11T13:08:16.766Z,23.96
2023-02-11T13:10:52.366Z,23.82
2023-02-11T13:13:26.888Z,23.65
2023-02-11T13:16:00.302Z,23.77
2023-02-11T13:18:51.058Z,23.29
2023-02-11T13:21:46.651Z,23.49
2023-02-11T13:24:28.136Z,23.75
2023-02-11T13:27:16.415Z,24.19
2023-02-11T13:30:31.840Z,24.61
2023-02-11T13:33:21.783Z,24.44
2023-02-11T13:36:17.005Z,24.43
2023-02-11T13:39:03.063Z,24.62
2023-02-11T13:41:40.653Z,24.54
2023-02-11T13:44:26.017Z,24.49
2023-02-11T13:47:04.748Z,24.65
2023-02-11T13:49:40.660Z,24.59
2023-02-11T13:52:26.563Z,24.94
2023-02-11T13:54:58.201Z,24.90
2023-02-11T13:57:40.859Z,25.06
2023-02-11T14:00:52.295Z,25.25
2023-02-11T14:03:48.611Z,25.20
2023-02-11T14:07:02.522Z,25.04
2023-02-11T14:09:57.715Z,24.93
2023-02-11T14:12:37.352Z,25.20
2023-02-11T14:15:28.389Z,25.07
2023-02-11T14:17:57.218Z,24.86
2023-02-11T14:20:51.351Z,25.15
2023-02-11T14:23:28.489Z,25.21
2023-02-11T14:26:40.129Z,25.30
2023-02-11T14:29:19.977Z,25.35
2023-02-11T14:32:01.044Z,25.37
2023-02-11T14:34:54.172Z,25.55
2023-02-11T14:37:40.344Z,25.78
2023-02-11T14:40:26.879Z,26.03
2023-02-11T14:43:02.801Z,26.09
2023-02-11T14:45:32.626Z,26.25
2023-02-11T14:48:08.792Z,26.48
2023-02-11T14:50:46.580Z,26.60
2023-02-11T14:53:24.368Z,26.77
2023-02-11T14:55:55.993Z,26.72
2023-02-11T14:58:28.246Z,26.94
2023-02-11T15:01:00.993Z,27.00
2023-02-11T15:03:35.245Z,27.22
2023-02-11T15:06:09.659Z,27.17
2023-02-11T15:08:45.878Z,27.52
2023-02-11T15:11:19.565Z,27.61
2023-02-11T15:13:55.557Z,27.70
2023-02-11T15:16:29.087Z,27.75
2023-02-11T15:19:04.086Z,27.87
2023-02-11T15:21:38.257Z,27.86
2023-02-11T15:24:25.765Z,28.07
2023-02-11T15:27:04.290Z,28.35
2023-02-11T15:29:39.918Z,28.32
2023-02-11T15:32:17.131Z,28.39
2023-02-11T15:34:48.671Z,28.21
2023-02-11T15:37:23.670Z,28.46
2023-02-11T15:39:57.213Z,28.63
2023-02-11T15:42:40.988Z,28.58
2023-02-11T15:45:29.324Z,28.59
2023-02-11T15:48:09.618Z,29.00
2023-02-11T15:50:41.373Z,29.13
2023-02-11T15:53:28.251Z,29.16
2023-02-11T15:56:06.619Z,29.03
2023-02-11T15:58:44.650Z,29.54
2023-02-11T16:01:15.421Z,29.32
2023-02-11T16:03:51.594Z,29.54
2023-02-11T16:06:24.867Z,29.64
2023-02-11T16:09:04.535Z,29.55
2023-02-11T16:11:37.524Z,29.93
2023-02-11T16:14:25.205Z,29.94
2023-02-11T16:16:57.943Z,30.26
2023-02-11T16:19:30.983Z,30.36
2023-02-11T16:22:09.022Z,30.23
2023-02-11T16:24:44.534Z,30.51
2023-02-11T16:27:26.221Z,31.08
2023-02-11T16:29:56.398Z,31.06
2023-02-11T16:32:29.674Z,30.79
2023-02-11T16:35:02.549Z,31.12
2023-02-11T16:37:32.838Z,31.51
2023-02-11T16:40:02.511Z,31.33
2023-02-11T16:42:33.728Z,31.46
2023-02-11T16:45:03.844Z,31.48
2023-02-11T16:47:33.992Z,31.62
2023-02-11T16:50:10.118Z,31.44
2023-02-11T16:52:41.369Z,31.50
2023-02-11T16:55:12.141Z,31.80
2023-02-11T16:57:43.903Z,31.72
2023-02-11T17:00:17.323Z,32.06
2023-02-11T17:02:48.045Z,31.67
2023-02-11T17:05:23.637Z,32.49
2023-02-11T17:07:53.210Z,32.53
2023-02-11T17:10:25.164Z,32.86
2023-02-11T17:12:56.102Z,32.40
2023-02-11T17:15:26.585Z,32.65
2023-02-11T17:17:59.481Z,32.70
2023-02-11T17:20:34.747Z,33.14
2023-02-11T17:23:04.924Z,33.36
2023-02-11T17:25:34.691Z,33.58
2023-02-11T17:28:06.805Z,34.00
2023-02-11T17:30:36.639Z,33.58
2023-02-11T17:33:07.190Z,33.39
2023-02-11T17:35:40.971Z,33.10
2023-02-11T17:38:11.275Z,33.54
2023-02-11T17:40:41.442Z,33.38
2023-02-11T17:43:16.151Z,33.65
2023-02-11T17:45:47.304Z,33.51
2023-02-11T17:48:19.244Z,33.30
2023-02-11T17:50:49.648Z,33.50
2023-02-11T17:53:19.774Z,33.40
2023-02-11T17:55:50.336Z,33.31
2023-02-11T17:58:22.637Z,32.96
2023-02-11T18:00:52.996Z,33.05
2023-02-11T18:03:23.136Z,33.18
2023-02-11T18:05:53.612Z,33.05
2023-02-11T18:08:29.801Z,33.25
2023-02-11T18:11:02.622Z,33.17
2023-02-11T18:13:34.904Z,32.72
2023-02-11T18:16:06.707Z,33.03
2023-02-11T18:18:36.915Z,33.04
2023-02-11T18:21:09.584Z,32.75
2023-02-11T18:23:39.762Z,32.73
2023-02-11T18:26:11.052Z,32.57
2023-02-11T18:28:45.842Z,32.37
2023-02-11T18:31:18.578Z,32.69
2023-02-11T18:33:50.088Z,32.44
2023-02-11T18:36:21.248Z,32.41
2023-02-11T18:38:53.047Z,32.75
2023-02-11T18:41:23.481Z,32.63
2023-02-11T18:43:54.738Z,32.62
2023-02-11T18:46:24.744Z,32.25
2023-02-11T18:48:56.056Z,32.57
2023-02-11T18:51:28.934Z,32.69
2023-02-11T18:54:01.854Z,32.43
2023-02-11T18:56:32.101Z,32.74
2023-02-11T18:59:06.031Z,32.69
2023-02-11T19:01:36.359Z,32.87
2023-02-11T19:04:08.220Z,32.54
2023-02-11T19:06:40.032Z,32.73
2023-02-11T19:09:13.864Z,32.61
2023-02-11T19:11:50.807Z,32.96
2023-02-11T19:14:26.987Z,32.91
2023-02-11T19:16:59.818Z,32.94
2023-02-11T19:19:32.396Z,32.91
2023-02-11T19:22:03.752Z,32.99
2023-02-11T19:24:34.603Z,33.33
2023-02-11T19:27:08.283Z,33.14
2023-02-11T19:29:43.443Z,33.35
2023-02-11T19:32:14.241Z,33.09
2023-02-11T19:34:48.408Z,33.61
2023-02-11T19:37:18.702Z,33.59
2023-02-11T19:39:51.539Z,33.57
2023-02-11T19:42:21.922Z,33.86
2023-02-11T19:45:10.099Z,33.92
2023-02-11T19:47:41.744Z,33.88
2023-02-11T19:50:12.894Z,34.05
2023-02-11T19:52:43.563Z,34.17
2023-02-11T19:55:14.179Z,34.13
2023-02-11T19:57:44.991Z,34.23
2023-02-11T20:00:21.384Z,34.23
2023-02-11T20:02:50.998Z,34.06
2023-02-11T20:05:24.082Z,34.31
2023-02-11T20:07:54.572Z,34.37
2023-02-11T20:10:25.823Z,34.41
2023-02-11T20:12:57.593Z,34.51
2023-02-11T20:15:30.424Z,34.58
2023-02-11T20:18:01.111Z,34.77
2023-02-11T20:20:31.705Z,34.69
2023-02-11T20:23:02.338Z,34.79
2023-02-11T20:25:31.337Z,34.64
2023-02-11T20:28:01.894Z,35.06
2023-02-11T20:30:34.143Z,34.99
2023-02-11T20:33:05.071Z,35.16
2023-02-11T20:35:35.174Z,35.57
2023-02-11T20:38:05.756Z,35.25
2023-02-11T20:40:36.297Z,35.25
2023-02-11T20:43:06.829Z,35.02
2023-02-11T20:45:41.498Z,35.27
2023-02-11T20:48:13.424Z,35.79
2023-02-11T20:50:46.592Z,35.73
2023-02-11T20:53:20.305Z,35.30
2023-02-11T20:55:51.212Z,35.70
2023-02-11T20:58:20.949Z,35.56
2023-02-11T21:00:52.931Z,35.79
2023-02-11T21:03:23.461Z,35.94
2023-02-11T21:05:54.799Z,36.36
2023-02-11T21:08:24.715Z,35.78
2023-02-11T21:10:54.296Z,35.62
2023-02-11T21:13:27.958Z,36.00
2023-02-11T21:15:59.363Z,36.04
2023-02-11T21:18:33.461Z,35.98
2023-02-11T21:21:06.070Z,36.28
2023-02-11T21:23:40.298Z,36.23
2023-02-11T21:26:10.921Z,36.56
2023-02-11T21:28:42.873Z,36.32
2023-02-11T21:31:23.693Z,36.25
2023-02-11T21:33:55.560Z,36.80
2023-02-11T21:36:25.887Z,36.74
2023-02-11T21:38:55.214Z,36.75
2023-02-11T21:41:27.422Z,36.58
2023-02-11T21:43:57.565Z,36.78
2023-02-11T21:46:29.333Z,36.95
2023-02-11T21:49:00.571Z,37.58
2023-02-11T21:51:30.710Z,37.53
2023-02-11T21:54:02.945Z,37.37
2023-02-11T21:56:35.685Z,37.42
2023-02-11T21:59:05.415Z,37.77
2023-02-11T22:01:39.513Z,37.61
2023-02-11T22:04:08.407Z,37.73
2023-02-11T22:06:36.870Z,37.94
2023-02-11T22:09:08.806Z,38.26
2023-02-11T22:11:38.140Z,37.94
2023-02-11T22:14:08.082Z,38.23
2023-02-11T22:16:38.415Z,38.46
2023-02-11T22:19:07.596Z,38.43
2023-02-11T22:21:36.324Z,38.31
2023-02-11T22:24:05.882Z,38.80
2023-02-11T22:26:34.680Z,38.60
2023-02-11T22:29:03.264Z,38.68
2023-02-11T22:31:34.922Z,38.57
2023-02-11T22:34:06.160Z,38.75
2023-02-11T22:36:37.285Z,38.71
2023-02-11T22:39:08.766Z,38.75
2023-02-11T22:41:38.392Z,38.25
2023-02-11T22:44:06.891Z,38.50
2023-02-11T22:46:36.537Z,38.51
2023-02-11T22:49:07.218Z,38.79
2023-02-11T22:51:36.252Z,38.60
2023-02-11T22:54:07.311Z,39.06
2023-02-11T22:56:36.734Z,38.89
2023-02-11T22:59:07.882Z,38.97
2023-02-11T23:01:36.862Z,38.75
2023-02-11T23:04:09.530Z,38.92
2023-02-11T23:06:38.211Z,38.87
2023-02-11T23:09:08.231Z,38.95
2023-02-11T23:11:37.225Z,38.82
2023-02-11T23:14:05.870Z,39.10
2023-02-11T23:16:35.875Z,39.23
2023-02-11T23:19:08.575Z,39.42
2023-02-11T23:21:40.300Z,39.11
2023-02-11T23:24:14.270Z,39.45
2023-02-11T23:26:44.847Z,39.15
2023-02-11T23:29:13.993Z,38.82
2023-02-11T23:31:46.083Z,38.95
2023-02-11T23:34:20.424Z,39.23
2023-02-11T23:36:48.832Z,38.94
2023-02-11T23:39:17.979Z,39.24
2023-02-11T23:41:47.848Z,39.16
2023-02-11T23:44:16.422Z,39.38
2023-02-11T23:46:44.905Z,39.31
2023-02-11T23:49:15.620Z,39.11
2023-02-11T23:51:45.504Z,39.37
2023-02-11T23:54:15.930Z,39.66
2023-02-11T23:56:44.588Z,39.76
2023-02-11T23:59:13.197Z,40.33
